createdAt,value
2019-01-14T00:02:18.079Z,96433.00
2019-01-14T00:06:20.448Z,96440.00
2019-01-14T00:10:22.827Z,96441.00
2019-01-14T00:14:25.253Z,96455.00
2019-01-14T00:18:27.664Z,96451.00
2019-01-14T00:22:30.003Z,96445.00
2019-01-14T00:26:32.397Z,96464.00
2019-01-14T00:30:34.759Z,96462.00
2019-01-14T00:34:37.206Z,96446.00
2019-01-14T00:38:39.553Z,96447.00
2019-01-14T00:42:41.934Z,96450.00
2019-01-14T00:46:44.290Z,96445.00
2019-01-14T00:50:46.598Z,96470.00
2019-01-14T00:54:48.945Z,96471.00
2019-01-14T00:58:51.304Z,96476.00
2019-01-14T01:02:53.714Z,96470.00
2019-01-14T01:06:56.088Z,96465.00
2019-01-14T01:10:58.539Z,96468.00
2019-01-14T01:15:00.953Z,96476.00
2019-01-14T01:19:03.378Z,96477.00
2019-01-14T01:23:05.712Z,96488.00
2019-01-14T01:27:08.209Z,96494.00
2019-01-14T01:31:10.588Z,96492.00
2019-01-14T01:39:16.320Z,96519.00
2019-01-14T01:43:18.638Z,96526.00
2019-01-14T01:47:20.922Z,96536.00
2019-01-14T01:51:23.393Z,96559.00
2019-01-14T01:55:25.762Z,96560.00
2019-01-14T01:59:28.058Z,96574.00
2019-01-14T02:03:30.334Z,96586.00
2019-01-14T02:07:32.717Z,96591.00
2019-01-14T02:11:35.150Z,96601.00
2019-01-14T02:15:37.503Z,96611.00
2019-01-14T02:19:39.837Z,96616.00
2019-01-14T02:23:42.222Z,96626.00
2019-01-14T02:27:44.613Z,96628.00
2019-01-14T02:31:46.924Z,96632.00
2019-01-14T02:35:49.211Z,96632.00
2019-01-14T02:39:51.525Z,96628.00
2019-01-14T02:43:53.943Z,96629.00
2019-01-14T02:47:56.268Z,96631.00
2019-01-14T02:51:58.568Z,96627.00
2019-01-14T02:56:00.896Z,96637.00
2019-01-14T03:00:04.528Z,96640.00
2019-01-14T03:04:06.848Z,96650.00
2019-01-14T03:08:09.247Z,96653.00
2019-01-14T03:12:11.566Z,96661.00
2019-01-14T03:16:13.898Z,96674.00
2019-01-14T03:20:16.352Z,96668.00
2019-01-14T03:24:18.717Z,96676.00
2019-01-14T03:28:21.087Z,96671.00
2019-01-14T03:32:23.397Z,96677.00
2019-01-14T03:36:25.791Z,96670.00
2019-01-14T03:40:28.072Z,96685.00
2019-01-14T03:44:30.314Z,96688.00
2019-01-14T03:48:32.618Z,96691.00
2019-01-14T03:52:34.893Z,96702.00
2019-01-14T03:56:37.328Z,96707.00
2019-01-14T04:00:39.602Z,96703.00
2019-01-14T04:04:41.957Z,96707.00
2019-01-14T04:08:44.371Z,96720.00
2019-01-14T04:12:46.871Z,96731.00
2019-01-14T04:16:49.165Z,96733.00
2019-01-14T04:20:51.507Z,96742.00
2019-01-14T04:24:53.822Z,96761.00
2019-01-14T04:28:56.126Z,96756.00
2019-01-14T04:32:58.395Z,96775.00
2019-01-14T04:37:00.738Z,96800.00
2019-01-14T04:41:03.126Z,96787.00
2019-01-14T04:45:06.241Z,96789.00
2019-01-14T04:49:08.528Z,96804.00
2019-01-14T04:53:10.884Z,96796.00
2019-01-14T04:57:13.177Z,96796.00
2019-01-14T05:01:15.530Z,96812.00
2019-01-14T05:05:17.911Z,96823.00
2019-01-14T05:09:20.157Z,96822.00
2019-01-14T05:13:22.514Z,96834.00
2019-01-14T05:17:24.824Z,96839.00
2019-01-14T05:21:27.191Z,96839.00
2019-01-14T05:25:29.532Z,96847.00
2019-01-14T05:29:31.865Z,96847.00
2019-01-14T05:33:35.038Z,96854.00
2019-01-14T05:37:38.052Z,96854.00
2019-01-14T05:41:39.686Z,96852.00
2019-01-14T05:45:41.980Z,96868.00
2019-01-14T05:49:44.271Z,96864.00
2019-01-14T05:53:46.551Z,96878.00
2019-01-14T05:57:49.127Z,96880.00
2019-01-14T06:01:51.461Z,96883.00
2019-01-14T06:05:53.806Z,96888.00
2019-01-14T06:09:56.156Z,96897.00
2019-01-14T06:13:58.486Z,96903.00
2019-01-14T06:18:00.817Z,96906.00
2019-01-14T06:22:03.206Z,96912.00
2019-01-14T06:26:05.537Z,96914.00
2019-01-14T06:30:13.095Z,96922.00
2019-01-14T06:34:15.456Z,96925.00
2019-01-14T06:38:17.821Z,96936.00
2019-01-14T06:42:20.125Z,96934.00
2019-01-14T06:46:22.511Z,96945.00
2019-01-14T06:50:24.891Z,96951.00
2019-01-14T06:54:27.190Z,96958.00
2019-01-14T06:58:29.546Z,96944.00
2019-01-14T07:02:31.859Z,96969.00
2019-01-14T07:06:34.204Z,96976.00
2019-01-14T07:10:36.589Z,96987.00
2019-01-14T07:14:38.921Z,96919.00
2019-01-14T07:18:41.265Z,97006.00
2019-01-14T07:22:43.670Z,97000.00
2019-01-14T07:26:46.096Z,96981.00
2019-01-14T07:30:48.498Z,97010.00
2019-01-14T07:34:50.836Z,97008.00
2019-01-14T07:38:53.158Z,97030.00
2019-01-14T07:42:56.110Z,97039.00
2019-01-14T07:46:58.575Z,97029.00
2019-01-14T07:51:00.920Z,97035.00
2019-01-14T07:55:03.394Z,97041.00
2019-01-14T07:59:05.741Z,97050.00
2019-01-14T08:03:08.060Z,97056.00
2019-01-14T08:07:10.395Z,97074.00
2019-01-14T08:11:12.696Z,97083.00
2019-01-14T08:15:16.688Z,97092.00
2019-01-14T08:19:19.010Z,97091.00
2019-01-14T08:23:21.285Z,97097.00
2019-01-14T08:27:23.658Z,97085.00
2019-01-14T08:31:25.984Z,97110.00
2019-01-14T08:35:28.338Z,97112.00
2019-01-14T08:39:30.764Z,97114.00
2019-01-14T08:43:35.710Z,97111.00
2019-01-14T08:47:38.055Z,97111.00
2019-01-14T08:51:40.353Z,97109.00
2019-01-14T08:55:42.678Z,97121.00
2019-01-14T08:59:45.005Z,97120.00
2019-01-14T09:03:47.413Z,97113.00
2019-01-14T09:07:49.874Z,97122.00
2019-01-14T09:11:52.224Z,97140.00
2019-01-14T09:15:54.606Z,97153.00
2019-01-14T09:19:57.712Z,97154.00
2019-01-14T09:24:00.073Z,97166.00
2019-01-14T09:28:02.549Z,97173.00
2019-01-14T09:32:05.072Z,97178.00
2019-01-14T09:36:07.583Z,97190.00
2019-01-14T09:40:12.045Z,97209.00
2019-01-14T09:44:14.513Z,97213.00
2019-01-14T09:48:16.898Z,97212.00
2019-01-14T09:52:19.293Z,97217.00
2019-01-14T09:56:21.721Z,97215.00
2019-01-14T10:00:24.081Z,97214.00
2019-01-14T10:04:27.985Z,97210.00
2019-01-14T10:08:30.308Z,97212.00
2019-01-14T10:12:32.614Z,97209.00
2019-01-14T10:19:43.952Z,97220.00
2019-01-14T10:23:58.747Z,97215.00
2019-01-14T10:28:13.217Z,97217.00
2019-01-14T10:32:27.484Z,97214.00
2019-01-14T10:36:41.994Z,97228.00
2019-01-14T10:40:56.607Z,97212.00
2019-01-14T10:45:11.513Z,97226.00
2019-01-14T10:49:26.060Z,97220.00
2019-01-14T10:53:40.569Z,97236.00
2019-01-14T10:57:54.963Z,97227.00
2019-01-14T11:02:09.443Z,97241.00
2019-01-14T11:06:24.014Z,97247.00
2019-01-14T11:10:37.913Z,97261.00
2019-01-14T11:14:52.923Z,97268.00
2019-01-14T11:19:07.018Z,97275.00
2019-01-14T11:23:29.832Z,97258.00
2019-01-14T11:27:44.213Z,97275.00
2019-01-14T11:31:59.551Z,97272.00
2019-01-14T11:36:14.196Z,97274.00
2019-01-14T11:40:31.828Z,97289.00
2019-01-14T11:44:45.697Z,97281.00
2019-01-14T11:49:00.254Z,97295.00
2019-01-14T11:53:01.353Z,97290.00
2019-01-14T11:57:22.078Z,97296.00
2019-01-14T12:06:24.186Z,97324.00
2019-01-14T12:10:45.157Z,97305.00
2019-01-14T12:15:26.228Z,97321.00
2019-01-14T12:19:46.937Z,97326.00
2019-01-14T12:24:07.694Z,97325.00
2019-01-14T12:28:23.713Z,97334.00
2019-01-14T12:32:38.103Z,97341.00
2019-01-14T12:36:53.272Z,97326.00
2019-01-14T12:41:07.441Z,97322.00
2019-01-14T12:45:22.166Z,97326.00
2019-01-14T12:49:36.742Z,97329.00
2019-01-14T12:53:37.607Z,97340.00
2019-01-14T12:57:39.530Z,97328.00
2019-01-14T13:01:41.439Z,97334.00
2019-01-14T13:06:02.231Z,97341.00
2019-01-14T13:10:23.057Z,97358.00
2019-01-14T13:14:44.197Z,97370.00
2019-01-14T13:19:05.014Z,97370.00
2019-01-14T13:23:25.874Z,97372.00
2019-01-14T13:27:46.628Z,97385.00
2019-01-14T13:32:01.103Z,97400.00
2019-01-14T13:36:15.809Z,97407.00
2019-01-14T13:40:29.672Z,97410.00
2019-01-14T13:44:44.325Z,97411.00
2019-01-14T13:48:58.203Z,97420.00
2019-01-14T13:53:11.988Z,97414.00
2019-01-14T13:57:26.254Z,97410.00
2019-01-14T14:01:40.143Z,97419.00
2019-01-14T14:05:54.578Z,97427.00
2019-01-14T14:09:55.471Z,97433.00
2019-01-14T14:14:16.211Z,97441.00
2019-01-14T14:18:37.056Z,97453.00
2019-01-14T14:22:37.979Z,97460.00
2019-01-14T14:26:38.964Z,97455.00
2019-01-14T14:30:53.355Z,97481.00
2019-01-14T14:35:07.986Z,97487.00
2019-01-14T14:39:21.987Z,97490.00
2019-01-14T14:43:36.703Z,97491.00
2019-01-14T14:47:51.368Z,97495.00
2019-01-14T14:52:06.126Z,97514.00
2019-01-14T14:56:20.737Z,97520.00
2019-01-14T15:00:22.175Z,97534.00
2019-01-14T15:04:42.976Z,97530.00
2019-01-14T15:09:31.637Z,97532.00
2019-01-14T15:13:48.165Z,97548.00
2019-01-14T15:17:49.390Z,97550.00
2019-01-14T15:22:10.566Z,97555.00
2019-01-14T15:26:31.530Z,97559.00
2019-01-14T15:30:45.306Z,97564.00
2019-01-14T15:35:00.267Z,97567.00
2019-01-14T15:39:16.332Z,97563.00
2019-01-14T15:43:30.537Z,97576.00
2019-01-14T15:47:31.566Z,97593.00
2019-01-14T15:51:52.461Z,97589.00
2019-01-14T15:56:13.424Z,97616.00
2019-01-14T16:00:34.281Z,97615.00
2019-01-14T16:04:54.986Z,97629.00
2019-01-14T16:09:15.842Z,97645.00
2019-01-14T16:13:17.340Z,97646.00
2019-01-14T16:17:18.424Z,97657.00
2019-01-14T16:21:19.506Z,97673.00
2019-01-14T16:25:40.378Z,97673.00
2019-01-14T16:29:54.714Z,97674.00
2019-01-14T16:33:55.765Z,97694.00
2019-01-14T16:38:16.501Z,97701.00
2019-01-14T16:42:37.326Z,97713.00
2019-01-14T16:46:58.079Z,97735.00
2019-01-14T16:51:19.034Z,97737.00
2019-01-14T17:00:30.980Z,97744.00
2019-01-14T17:04:51.813Z,97743.00
2019-01-14T17:09:12.550Z,97754.00
2019-01-14T17:18:04.262Z,97756.00
2019-01-14T17:22:25.230Z,97762.00
2019-01-14T17:26:46.044Z,97778.00
2019-01-14T17:30:47.294Z,97777.00
2019-01-14T17:35:08.219Z,97792.00
2019-01-14T17:39:28.974Z,97788.00
2019-01-14T17:43:49.741Z,97787.00
2019-01-14T17:48:10.598Z,97791.00
2019-01-14T17:52:31.345Z,97814.00
2019-01-14T17:56:52.235Z,97808.00
2019-01-14T18:01:13.090Z,97802.00
2019-01-14T18:05:34.113Z,97804.00
2019-01-14T18:09:54.938Z,97814.00
2019-01-14T18:14:15.770Z,97809.00
2019-01-14T18:18:37.125Z,97819.00
2019-01-14T18:22:38.195Z,97831.00
2019-01-14T18:26:58.967Z,97836.00
2019-01-14T18:31:00.008Z,97841.00
2019-01-14T18:35:01.138Z,97842.00
2019-01-14T18:39:22.059Z,97841.00
2019-01-14T18:43:42.819Z,97844.00
2019-01-14T18:48:03.752Z,97850.00
2019-01-14T18:52:24.682Z,97857.00
2019-01-14T18:56:45.615Z,97863.00
2019-01-14T19:01:06.461Z,97850.00
2019-01-14T19:05:27.429Z,97865.00
2019-01-14T19:10:09.869Z,97874.00
2019-01-14T19:14:31.163Z,97878.00
2019-01-14T19:19:13.720Z,97890.00
2019-01-14T19:23:34.676Z,97882.00
2019-01-14T19:27:55.449Z,97884.00
2019-01-14T19:31:56.349Z,97887.00
2019-01-14T19:36:17.789Z,97895.00
2019-01-14T19:41:02.072Z,97892.00
2019-01-14T19:45:23.009Z,97896.00
2019-01-14T19:49:24.177Z,97914.00
2019-01-14T19:53:25.641Z,97910.00
2019-01-14T19:57:46.614Z,97910.00
2019-01-14T20:02:08.146Z,97926.00
2019-01-14T20:06:28.974Z,97918.00
2019-01-14T20:10:49.968Z,97933.00
2019-01-14T20:15:30.674Z,97926.00
2019-01-14T20:19:51.765Z,97927.00
2019-01-14T20:24:13.131Z,97936.00
2019-01-14T20:28:33.888Z,97938.00
2019-01-14T20:32:48.838Z,97941.00
2019-01-14T20:37:02.949Z,97937.00
2019-01-14T20:41:18.733Z,97932.00
2019-01-14T20:45:32.972Z,97936.00
2019-01-14T20:49:47.823Z,97937.00
2019-01-14T20:54:02.588Z,97943.00
2019-01-14T20:58:19.949Z,97952.00
2019-01-14T21:06:43.093Z,97969.00
2019-01-14T21:11:05.864Z,97968.00
2019-01-14T21:15:26.840Z,97980.00
2019-01-14T21:19:27.821Z,97999.00
2019-01-14T21:23:48.701Z,97988.00
2019-01-14T21:28:09.627Z,97987.00
2019-01-14T21:32:23.893Z,97984.00
2019-01-14T21:36:39.710Z,97987.00
2019-01-14T21:40:54.772Z,97994.00
2019-01-14T21:45:08.819Z,97982.00
2019-01-14T21:49:27.082Z,97996.00
2019-01-14T21:58:43.827Z,98027.00
2019-01-14T22:03:12.292Z,98025.00
2019-01-14T22:07:33.117Z,98043.00
2019-01-14T22:11:53.860Z,98039.00
2019-01-14T22:16:14.738Z,98045.00
2019-01-14T22:20:35.473Z,98056.00
2019-01-14T22:24:56.309Z,98056.00
2019-01-14T22:29:17.109Z,98054.00
2019-01-14T22:33:31.059Z,98058.00
2019-01-14T22:37:45.527Z,98056.00
2019-01-14T22:42:00.141Z,98047.00
2019-01-14T22:46:14.602Z,98052.00
2019-01-14T22:50:28.597Z,98058.00
2019-01-14T22:54:43.308Z,98038.00
2019-01-14T22:58:44.178Z,98053.00
2019-01-14T23:03:05.028Z,98054.00
2019-01-14T23:07:25.756Z,98054.00
2019-01-14T23:11:53.025Z,98059.00
2019-01-14T23:20:35.732Z,98081.00
2019-01-14T23:24:56.475Z,98086.00
2019-01-14T23:29:17.317Z,98090.00
2019-01-14T23:37:34.465Z,98081.00
2019-01-14T23:41:35.465Z,98092.00
2019-01-14T23:45:36.417Z,98087.00
2019-01-14T23:49:57.525Z,98087.00
2019-01-14T23:59:03.089Z,98078.00
